createdAt,value
2018-09-06T00:00:53.930Z,1010.70
2018-09-06T00:01:55.320Z,1010.73
2018-09-06T00:02:56.701Z,1010.69
2018-09-06T00:03:58.085Z,1010.72
2018-09-06T00:04:59.538Z,1010.72
2018-09-06T00:06:00.858Z,1010.72
2018-09-06T00:07:02.256Z,1010.74
2018-09-06T00:08:03.625Z,1010.73
2018-09-06T00:09:05.010Z,1010.73
2018-09-06T00:10:06.418Z,1010.71
2018-09-06T00:11:07.812Z,1010.73
2018-09-06T00:12:09.186Z,1010.74
2018-09-06T00:13:10.680Z,1010.71
2018-09-06T00:14:12.211Z,1010.68
2018-09-06T00:15:13.655Z,1010.72
2018-09-06T00:16:16.483Z,1010.69
2018-09-06T00:17:17.811Z,1010.72
2018-09-06T00:18:19.197Z,1010.73
2018-09-06T00:19:20.581Z,1010.71
2018-09-06T00:20:21.969Z,1010.72
2018-09-06T00:21:23.361Z,1010.72
2018-09-06T00:22:24.739Z,1010.69
2018-09-06T00:23:26.122Z,1010.68
2018-09-06T00:24:27.502Z,1010.70
2018-09-06T00:25:28.933Z,1010.66
2018-09-06T00:26:30.317Z,1010.68
2018-09-06T00:27:31.703Z,1010.65
2018-09-06T00:28:33.093Z,1010.63
2018-09-06T00:29:34.566Z,1010.64
2018-09-06T00:30:35.951Z,1010.64
2018-09-06T00:31:37.335Z,1010.65
2018-09-06T00:32:38.717Z,1010.67
2018-09-06T00:33:40.100Z,1010.66
2018-09-06T00:34:41.494Z,1010.62
2018-09-06T00:35:42.913Z,1010.61
2018-09-06T00:36:44.304Z,1010.63
2018-09-06T00:37:45.687Z,1010.65
2018-09-06T00:38:47.098Z,1010.60
2018-09-06T00:39:48.532Z,1010.62
2018-09-06T00:40:49.923Z,1010.62
2018-09-06T00:41:51.312Z,1010.58
2018-09-06T00:42:52.689Z,1010.60
2018-09-06T00:43:54.071Z,1010.56
2018-09-06T00:44:56.931Z,1010.56
2018-09-06T00:45:58.268Z,1010.57
2018-09-06T00:46:59.643Z,1010.55
2018-09-06T00:48:01.035Z,1010.51
2018-09-06T00:49:02.480Z,1010.52
2018-09-06T00:50:03.853Z,1010.56
2018-09-06T00:51:05.245Z,1010.52
2018-09-06T00:52:06.635Z,1010.51
2018-09-06T00:53:08.020Z,1010.52
2018-09-06T00:54:09.399Z,1010.51
2018-09-06T00:55:10.788Z,1010.54
2018-09-06T00:56:12.199Z,1010.55
2018-09-06T00:57:13.581Z,1010.56
2018-09-06T00:58:14.968Z,1010.54
2018-09-06T00:59:16.377Z,1010.54
2018-09-06T01:00:17.786Z,1010.56
2018-09-06T01:01:19.234Z,1010.59
2018-09-06T01:02:20.704Z,1010.55
2018-09-06T01:03:22.089Z,1010.54
2018-09-06T01:04:23.476Z,1010.51
2018-09-06T01:05:24.853Z,1010.50
2018-09-06T01:06:26.242Z,1010.51
2018-09-06T01:07:27.616Z,1010.45
2018-09-06T01:08:29.033Z,1010.48
2018-09-06T01:09:30.475Z,1010.42
2018-09-06T01:10:31.858Z,1010.45
2018-09-06T01:11:33.253Z,1010.43
2018-09-06T01:12:34.627Z,1010.38
2018-09-06T01:13:36.034Z,1010.41
2018-09-06T01:14:37.419Z,1010.38
2018-09-06T01:15:38.795Z,1010.39
2018-09-06T01:16:40.183Z,1010.36
2018-09-06T01:17:41.571Z,1010.37
2018-09-06T01:18:42.963Z,1010.32
2018-09-06T01:19:44.357Z,1010.34
2018-09-06T01:20:45.741Z,1010.33
2018-09-06T01:21:47.136Z,1010.38
2018-09-06T01:22:48.522Z,1010.32
2018-09-06T01:23:49.931Z,1010.34
2018-09-06T01:24:51.354Z,1010.29
2018-09-06T01:25:52.726Z,1010.29
2018-09-06T01:26:54.112Z,1010.30
2018-09-06T01:27:56.923Z,1010.27
2018-09-06T01:28:58.251Z,1010.33
2018-09-06T01:29:59.634Z,1010.34
2018-09-06T01:31:01.020Z,1010.29
2018-09-06T01:32:02.492Z,1010.33
2018-09-06T01:33:03.904Z,1010.32
2018-09-06T01:34:05.292Z,1010.32
2018-09-06T01:35:06.676Z,1010.28
2018-09-06T01:36:08.054Z,1010.31
2018-09-06T01:37:09.471Z,1010.32
2018-09-06T01:38:10.851Z,1010.31
2018-09-06T01:39:12.235Z,1010.30
2018-09-06T01:40:13.629Z,1010.34
2018-09-06T01:41:15.029Z,1010.32
2018-09-06T01:42:16.411Z,1010.31
2018-09-06T01:43:17.795Z,1010.28
2018-09-06T01:44:19.185Z,1010.29
2018-09-06T01:45:20.563Z,1010.30
2018-09-06T01:46:21.963Z,1010.26
2018-09-06T01:47:23.443Z,1010.25
2018-09-06T01:48:24.797Z,1010.28
2018-09-06T01:49:26.180Z,1010.25
2018-09-06T01:50:27.570Z,1010.24
2018-09-06T01:51:28.967Z,1010.24
2018-09-06T01:52:30.355Z,1010.26
2018-09-06T01:53:31.740Z,1010.23
2018-09-06T01:54:33.135Z,1010.21
2018-09-06T01:55:34.524Z,1010.24
2018-09-06T01:56:35.911Z,1010.23
2018-09-06T01:57:37.291Z,1010.22
2018-09-06T01:58:38.679Z,1010.24
2018-09-06T01:59:40.074Z,1010.17
2018-09-06T02:00:41.492Z,1010.22
2018-09-06T02:01:42.880Z,1010.24
2018-09-06T02:02:44.268Z,1010.20
2018-09-06T02:03:45.653Z,1010.22
2018-09-06T02:04:47.044Z,1010.20
2018-09-06T02:05:48.431Z,1010.22
2018-09-06T02:06:49.827Z,1010.24
2018-09-06T02:07:51.206Z,1010.19
2018-09-06T02:08:52.585Z,1010.23
2018-09-06T02:09:53.973Z,1010.21
2018-09-06T02:10:55.363Z,1010.27
2018-09-06T02:11:56.749Z,1010.23
2018-09-06T02:12:58.145Z,1010.25
2018-09-06T02:13:59.523Z,1010.22
2018-09-06T02:15:00.907Z,1010.20
2018-09-06T02:16:02.303Z,1010.24
2018-09-06T02:17:03.684Z,1010.21
2018-09-06T02:18:05.072Z,1010.22
2018-09-06T02:19:06.457Z,1010.20
2018-09-06T02:20:07.848Z,1010.20
2018-09-06T02:21:09.224Z,1010.17
2018-09-06T02:22:10.628Z,1010.15
2018-09-06T02:23:12.004Z,1010.14
2018-09-06T02:24:13.410Z,1010.18
2018-09-06T02:25:14.774Z,1010.13
2018-09-06T02:26:16.163Z,1010.15
2018-09-06T02:27:17.556Z,1010.20
2018-09-06T02:28:18.928Z,1010.16
2018-09-06T02:29:20.315Z,1010.14
2018-09-06T02:30:21.695Z,1010.10
2018-09-06T02:31:23.081Z,1010.10
2018-09-06T02:32:24.464Z,1010.11
2018-09-06T02:33:25.857Z,1010.10
2018-09-06T02:34:27.235Z,1010.06
2018-09-06T02:35:28.608Z,1010.04
2018-09-06T02:36:30.008Z,1010.08
2018-09-06T02:37:31.390Z,1010.08
2018-09-06T02:38:32.776Z,1010.08
2018-09-06T02:39:34.162Z,1010.06
2018-09-06T02:40:35.553Z,1010.13
2018-09-06T02:41:36.940Z,1010.07
2018-09-06T02:42:38.334Z,1010.06
2018-09-06T02:43:39.740Z,1010.01
2018-09-06T02:44:41.133Z,1010.06
2018-09-06T02:45:42.514Z,1010.02
2018-09-06T02:46:43.901Z,1010.04
2018-09-06T02:47:45.290Z,1010.05
2018-09-06T02:48:46.684Z,1010.02
2018-09-06T02:49:48.062Z,1010.03
2018-09-06T02:50:49.445Z,1010.04
2018-09-06T02:51:50.839Z,1010.03
2018-09-06T02:52:52.252Z,1010.05
2018-09-06T02:53:53.705Z,1010.02
2018-09-06T02:54:55.016Z,1009.99
2018-09-06T02:55:56.402Z,1010.03
2018-09-06T02:56:57.796Z,1009.98
2018-09-06T02:57:59.186Z,1009.99
2018-09-06T02:59:00.587Z,1009.99
2018-09-06T03:00:01.970Z,1009.97
2018-09-06T03:01:03.367Z,1009.96
2018-09-06T03:02:04.744Z,1009.96
2018-09-06T03:03:06.149Z,1009.93
2018-09-06T03:04:07.541Z,1009.95
2018-09-06T03:05:08.924Z,1009.95
2018-09-06T03:06:10.306Z,1009.91
2018-09-06T03:07:11.690Z,1009.92
2018-09-06T03:08:13.074Z,1009.89
2018-09-06T03:09:14.465Z,1009.92
2018-09-06T03:10:15.868Z,1009.92
2018-09-06T03:11:17.245Z,1009.88
2018-09-06T03:12:18.641Z,1009.87
2018-09-06T03:13:20.015Z,1009.86
2018-09-06T03:14:21.409Z,1009.86
2018-09-06T03:15:22.804Z,1009.81
2018-09-06T03:16:24.191Z,1009.78
2018-09-06T03:17:25.568Z,1009.82
2018-09-06T03:18:26.950Z,1009.78
2018-09-06T03:19:28.346Z,1009.80
2018-09-06T03:20:29.732Z,1009.82
2018-09-06T03:21:31.126Z,1009.81
2018-09-06T03:22:32.534Z,1009.79
2018-09-06T03:23:33.928Z,1009.77
2018-09-06T03:24:35.318Z,1009.78
2018-09-06T03:25:36.644Z,1009.78
2018-09-06T03:26:38.034Z,1009.78
2018-09-06T03:27:39.423Z,1009.76
2018-09-06T03:28:40.810Z,1009.76
2018-09-06T03:29:42.192Z,1009.72
2018-09-06T03:30:43.581Z,1009.71
2018-09-06T03:31:45.907Z,1009.72
2018-09-06T03:32:47.320Z,1009.71
2018-09-06T03:33:48.711Z,1009.66
2018-09-06T03:34:50.091Z,1009.69
2018-09-06T03:35:51.531Z,1009.64
2018-09-06T03:36:52.868Z,1009.64
2018-09-06T03:37:54.267Z,1009.64
2018-09-06T03:38:55.659Z,1009.64
2018-09-06T03:39:57.052Z,1009.63
2018-09-06T03:40:58.436Z,1009.64
2018-09-06T03:41:59.824Z,1009.64
2018-09-06T03:43:01.224Z,1009.63
2018-09-06T03:44:02.614Z,1009.65
2018-09-06T03:45:04.000Z,1009.59
2018-09-06T03:46:05.382Z,1009.66
2018-09-06T03:47:06.768Z,1009.65
2018-09-06T03:48:08.158Z,1009.66
2018-09-06T03:49:09.538Z,1009.62
2018-09-06T03:50:10.922Z,1009.66
2018-09-06T03:51:12.306Z,1009.63
2018-09-06T03:52:13.695Z,1009.63
2018-09-06T03:53:15.083Z,1009.65
2018-09-06T03:54:16.474Z,1009.64
2018-09-06T03:55:17.820Z,1009.64
2018-09-06T03:56:19.234Z,1009.63
2018-09-06T03:57:20.615Z,1009.64
2018-09-06T03:58:22.001Z,1009.60
2018-09-06T03:59:23.391Z,1009.58
2018-09-06T04:00:24.773Z,1009.60
2018-09-06T04:01:26.163Z,1009.60
2018-09-06T04:02:27.553Z,1009.60
2018-09-06T04:03:28.934Z,1009.58
2018-09-06T04:04:30.329Z,1009.61
2018-09-06T04:05:31.732Z,1009.59
2018-09-06T04:06:33.107Z,1009.62
2018-09-06T04:07:34.527Z,1009.64
2018-09-06T04:08:35.908Z,1009.62
2018-09-06T04:09:37.302Z,1009.62
2018-09-06T04:10:38.702Z,1009.68
2018-09-06T04:11:40.097Z,1009.67
2018-09-06T04:12:41.475Z,1009.64
2018-09-06T04:13:42.861Z,1009.63
2018-09-06T04:14:44.251Z,1009.62
2018-09-06T04:15:45.637Z,1009.58
2018-09-06T04:16:47.017Z,1009.59
2018-09-06T04:17:48.402Z,1009.63
2018-09-06T04:18:49.794Z,1009.55
2018-09-06T04:19:51.177Z,1009.60
2018-09-06T04:20:52.561Z,1009.61
2018-09-06T04:21:53.962Z,1009.58
2018-09-06T04:22:55.345Z,1009.60
2018-09-06T04:23:56.743Z,1009.54
2018-09-06T04:24:58.127Z,1009.55
2018-09-06T04:25:59.512Z,1009.57
2018-09-06T04:27:00.902Z,1009.57
2018-09-06T04:28:02.282Z,1009.53
2018-09-06T04:29:03.673Z,1009.52
2018-09-06T04:30:05.065Z,1009.50
2018-09-06T04:31:06.461Z,1009.51
2018-09-06T04:32:07.847Z,1009.46
2018-09-06T04:33:09.230Z,1009.50
2018-09-06T04:34:10.645Z,1009.54
2018-09-06T04:35:12.014Z,1009.55
2018-09-06T04:36:13.415Z,1009.50
2018-09-06T04:37:14.793Z,1009.55
2018-09-06T04:38:16.175Z,1009.51
2018-09-06T04:39:17.554Z,1009.54
2018-09-06T04:40:18.946Z,1009.52
2018-09-06T04:41:20.333Z,1009.58
2018-09-06T04:42:21.717Z,1009.56
2018-09-06T04:43:23.103Z,1009.55
2018-09-06T04:44:24.488Z,1009.53
2018-09-06T04:45:25.881Z,1009.57
2018-09-06T04:46:27.264Z,1009.54
2018-09-06T04:47:28.659Z,1009.58
2018-09-06T04:48:30.038Z,1009.52
2018-09-06T04:49:31.440Z,1009.55
2018-09-06T04:50:32.757Z,1009.59
2018-09-06T04:51:34.170Z,1009.56
2018-09-06T04:52:35.556Z,1009.53
2018-09-06T04:53:36.948Z,1009.52
2018-09-06T04:54:38.335Z,1009.54
2018-09-06T04:55:39.718Z,1009.53
2018-09-06T04:56:41.126Z,1009.50
2018-09-06T04:57:42.543Z,1009.52
2018-09-06T04:58:43.926Z,1009.54
2018-09-06T04:59:45.332Z,1009.50
2018-09-06T05:00:46.719Z,1009.53
2018-09-06T05:01:48.112Z,1009.55
2018-09-06T05:02:49.512Z,1009.49
2018-09-06T05:03:50.886Z,1009.54
2018-09-06T05:04:52.282Z,1009.54
2018-09-06T05:05:53.684Z,1009.53
2018-09-06T05:06:55.078Z,1009.56
2018-09-06T05:07:56.484Z,1009.57
2018-09-06T05:08:57.861Z,1009.50
2018-09-06T05:09:59.257Z,1009.48
2018-09-06T05:11:00.645Z,1009.47
2018-09-06T05:12:02.049Z,1009.51
2018-09-06T05:13:03.442Z,1009.50
2018-09-06T05:14:04.829Z,1009.54
2018-09-06T05:15:06.221Z,1009.49
2018-09-06T05:16:07.626Z,1009.49
2018-09-06T05:17:09.004Z,1009.47
2018-09-06T05:18:11.313Z,1009.47
2018-09-06T05:19:12.708Z,1009.50
2018-09-06T05:20:14.102Z,1009.48
2018-09-06T05:21:15.486Z,1009.54
2018-09-06T05:22:16.867Z,1009.51
2018-09-06T05:23:18.261Z,1009.50
2018-09-06T05:24:19.681Z,1009.54
2018-09-06T05:25:21.063Z,1009.53
2018-09-06T05:26:22.448Z,1009.51
2018-09-06T05:27:23.860Z,1009.53
2018-09-06T05:28:25.242Z,1009.52
2018-09-06T05:29:26.628Z,1009.51
2018-09-06T05:30:28.028Z,1009.50
2018-09-06T05:31:29.408Z,1009.50
2018-09-06T05:32:30.798Z,1009.50
2018-09-06T05:33:32.178Z,1009.52
2018-09-06T05:34:33.573Z,1009.53
2018-09-06T05:35:34.970Z,1009.52
2018-09-06T05:36:36.385Z,1009.50
2018-09-06T05:37:37.747Z,1009.48
2018-09-06T05:38:39.119Z,1009.50
2018-09-06T05:39:40.508Z,1009.50
2018-09-06T05:40:41.890Z,1009.48
2018-09-06T05:41:43.277Z,1009.46
2018-09-06T05:42:44.669Z,1009.49
2018-09-06T05:43:46.059Z,1009.47
2018-09-06T05:44:47.442Z,1009.46
2018-09-06T05:45:48.845Z,1009.44
2018-09-06T05:46:50.231Z,1009.42
2018-09-06T05:47:51.624Z,1009.42
2018-09-06T05:48:53.037Z,1009.41
2018-09-06T05:49:54.421Z,1009.41
2018-09-06T05:50:55.823Z,1009.39
2018-09-06T05:51:57.201Z,1009.41
2018-09-06T05:52:58.588Z,1009.41
2018-09-06T05:53:59.989Z,1009.42
2018-09-06T05:55:01.375Z,1009.43
2018-09-06T05:56:02.770Z,1009.41
2018-09-06T05:57:04.156Z,1009.40
2018-09-06T05:58:05.602Z,1009.46
2018-09-06T05:59:06.893Z,1009.49
2018-09-06T06:00:08.316Z,1009.43
2018-09-06T06:01:09.687Z,1009.47
2018-09-06T06:02:11.072Z,1009.47
2018-09-06T06:03:12.474Z,1009.48
2018-09-06T06:04:13.860Z,1009.47
2018-09-06T06:05:15.318Z,1009.46
2018-09-06T06:06:16.652Z,1009.45
2018-09-06T06:07:18.052Z,1009.44
2018-09-06T06:08:19.438Z,1009.45
2018-09-06T06:09:20.819Z,1009.45
2018-09-06T06:10:22.201Z,1009.42
2018-09-06T06:11:23.601Z,1009.43
2018-09-06T06:12:24.988Z,1009.42
2018-09-06T06:13:26.383Z,1009.43
2018-09-06T06:14:27.775Z,1009.40
2018-09-06T06:15:29.169Z,1009.42
2018-09-06T06:16:30.564Z,1009.37
2018-09-06T06:17:31.951Z,1009.42
2018-09-06T06:18:33.339Z,1009.43
2018-09-06T06:19:34.739Z,1009.43
2018-09-06T06:20:36.130Z,1009.44
2018-09-06T06:21:38.186Z,1009.43
2018-09-06T06:22:39.572Z,1009.45
2018-09-06T06:23:40.953Z,1009.43
2018-09-06T06:24:42.351Z,1009.40
2018-09-06T06:25:43.757Z,1009.43
2018-09-06T06:26:45.134Z,1009.41
2018-09-06T06:27:46.512Z,1009.38
2018-09-06T06:28:47.915Z,1009.44
2018-09-06T06:29:49.297Z,1009.38
2018-09-06T06:30:50.700Z,1009.39
2018-09-06T06:31:53.089Z,1009.42
2018-09-06T06:32:54.419Z,1009.37
2018-09-06T06:33:55.848Z,1009.32
2018-09-06T06:34:57.216Z,1009.36
2018-09-06T06:35:58.609Z,1009.37
2018-09-06T06:37:00.701Z,1009.33
2018-09-06T06:38:01.372Z,1009.31
2018-09-06T06:39:02.752Z,1009.34
2018-09-06T06:40:04.173Z,1009.34
2018-09-06T06:41:05.571Z,1009.37
2018-09-06T06:42:06.975Z,1009.36
2018-09-06T06:43:08.378Z,1009.35
2018-09-06T06:44:09.779Z,1009.35
2018-09-06T06:45:11.158Z,1009.36
2018-09-06T06:46:12.558Z,1009.36
2018-09-06T06:47:13.943Z,1009.36
2018-09-06T06:48:15.319Z,1009.33
2018-09-06T06:49:16.721Z,1009.38
2018-09-06T06:50:18.157Z,1009.35
2018-09-06T06:51:19.488Z,1009.40
2018-09-06T06:52:20.875Z,1009.37
2018-09-06T06:53:22.265Z,1009.33
2018-09-06T06:54:23.660Z,1009.39
2018-09-06T06:55:25.038Z,1009.33
2018-09-06T06:56:26.430Z,1009.36
2018-09-06T06:57:27.819Z,1009.35
2018-09-06T06:58:29.225Z,1009.39
2018-09-06T06:59:30.596Z,1009.36
2018-09-06T07:00:32.865Z,1009.40
2018-09-06T07:01:34.257Z,1009.40
2018-09-06T07:02:35.645Z,1009.38
2018-09-06T07:03:37.041Z,1009.40
2018-09-06T07:04:38.505Z,1009.41
2018-09-06T07:05:39.818Z,1009.43
2018-09-06T07:06:41.271Z,1009.41
2018-09-06T07:07:42.661Z,1009.45
2018-09-06T07:08:44.791Z,1009.41
2018-09-06T07:09:46.202Z,1009.41
2018-09-06T07:10:47.585Z,1009.38
2018-09-06T07:11:48.972Z,1009.38
2018-09-06T07:12:50.368Z,1009.40
2018-09-06T07:13:51.749Z,1009.37
2018-09-06T07:14:53.147Z,1009.36
2018-09-06T07:15:54.541Z,1009.38
2018-09-06T07:16:55.934Z,1009.33
2018-09-06T07:17:57.323Z,1009.43
2018-09-06T07:18:58.718Z,1009.39
2018-09-06T07:20:00.116Z,1009.40
2018-09-06T07:21:01.505Z,1009.36
2018-09-06T07:22:02.904Z,1009.41
2018-09-06T07:23:04.291Z,1009.45
2018-09-06T07:24:05.688Z,1009.42
2018-09-06T07:25:07.074Z,1009.41
2018-09-06T07:26:08.468Z,1009.37
2018-09-06T07:27:09.856Z,1009.37
2018-09-06T07:28:11.247Z,1009.41
2018-09-06T07:29:12.642Z,1009.39
2018-09-06T07:30:14.035Z,1009.42
2018-09-06T07:31:15.426Z,1009.45
2018-09-06T07:32:16.806Z,1009.44
2018-09-06T07:33:22.698Z,1009.41
2018-09-06T07:34:24.089Z,1009.43
2018-09-06T07:35:25.501Z,1009.42
2018-09-06T07:36:26.878Z,1009.44
2018-09-06T07:37:28.275Z,1009.35
2018-09-06T07:38:29.667Z,1009.37
2018-09-06T07:39:31.059Z,1009.41
2018-09-06T07:40:32.449Z,1009.37
2018-09-06T07:41:33.850Z,1009.34
2018-09-06T07:42:35.246Z,1009.39
2018-09-06T07:43:36.644Z,1009.36
2018-09-06T07:44:38.037Z,1009.38
2018-09-06T07:45:39.422Z,1009.40
2018-09-06T07:46:40.818Z,1009.45
2018-09-06T07:47:42.226Z,1009.48
2018-09-06T07:48:43.605Z,1009.50
2018-09-06T07:49:44.958Z,1009.43
2018-09-06T07:50:46.346Z,1009.38
2018-09-06T07:51:47.736Z,1009.41
2018-09-06T07:52:49.132Z,1009.45
2018-09-06T07:53:50.524Z,1009.52
2018-09-06T07:54:51.926Z,1009.50
2018-09-06T07:55:53.330Z,1009.39
2018-09-06T07:56:54.720Z,1009.41
2018-09-06T07:57:56.117Z,1009.41
2018-09-06T07:58:57.515Z,1009.37
2018-09-06T07:59:58.905Z,1009.35
2018-09-06T08:01:00.292Z,1009.38
2018-09-06T08:02:01.689Z,1009.39
2018-09-06T08:03:03.077Z,1009.36
2018-09-06T08:04:04.477Z,1009.32
2018-09-06T08:05:05.861Z,1009.35
2018-09-06T08:06:07.259Z,1009.32
2018-09-06T08:07:08.656Z,1009.33
2018-09-06T08:08:10.059Z,1009.33
2018-09-06T08:09:11.441Z,1009.35
2018-09-06T08:10:12.827Z,1009.35
2018-09-06T08:11:14.218Z,1009.28
2018-09-06T08:12:15.614Z,1009.36
2018-09-06T08:13:17.016Z,1009.26
2018-09-06T08:14:18.407Z,1009.31
2018-09-06T08:15:19.792Z,1009.32
2018-09-06T08:16:21.198Z,1009.38
2018-09-06T08:17:22.582Z,1009.43
2018-09-06T08:18:23.970Z,1009.29
2018-09-06T08:19:25.350Z,1009.34
2018-09-06T08:20:26.752Z,1009.29
2018-09-06T08:21:28.157Z,1009.31
2018-09-06T08:22:29.552Z,1009.23
2018-09-06T08:23:30.938Z,1009.28
2018-09-06T08:24:32.381Z,1009.24
2018-09-06T08:25:33.726Z,1009.29
2018-09-06T08:26:35.111Z,1009.40
2018-09-06T08:27:36.514Z,1009.28
2018-09-06T08:28:37.894Z,1009.31
2018-09-06T08:29:39.300Z,1009.38
2018-09-06T08:30:40.730Z,1009.39
2018-09-06T08:31:42.053Z,1009.38
2018-09-06T08:32:43.444Z,1009.40
2018-09-06T08:33:44.839Z,1009.44
2018-09-06T08:34:46.223Z,1009.41
2018-09-06T08:35:47.626Z,1009.40
2018-09-06T08:36:49.098Z,1009.38
2018-09-06T08:37:50.377Z,1009.39
2018-09-06T08:38:51.781Z,1009.39
2018-09-06T08:39:53.169Z,1009.35
2018-09-06T08:40:54.565Z,1009.44
2018-09-06T08:41:55.963Z,1009.41
2018-09-06T08:42:57.365Z,1009.46
2018-09-06T08:43:58.748Z,1009.37
2018-09-06T08:45:00.142Z,1009.33
2018-09-06T08:46:01.545Z,1009.30
2018-09-06T08:47:02.958Z,1009.23
2018-09-06T08:48:04.366Z,1009.19
2018-09-06T08:49:05.763Z,1009.19
2018-09-06T08:50:07.152Z,1009.20
2018-09-06T08:51:08.632Z,1009.19
2018-09-06T08:52:10.092Z,1009.25
2018-09-06T08:53:11.384Z,1009.23
2018-09-06T08:54:12.780Z,1009.21
2018-09-06T08:55:14.184Z,1009.33
2018-09-06T08:56:15.571Z,1009.13
2018-09-06T08:57:16.958Z,1009.20
2018-09-06T08:58:18.369Z,1009.18
2018-09-06T08:59:19.764Z,1009.30
2018-09-06T09:00:21.167Z,1009.18
2018-09-06T09:01:22.569Z,1009.20
2018-09-06T09:02:23.990Z,1009.27
2018-09-06T09:03:25.365Z,1009.18
2018-09-06T09:04:26.774Z,1009.11
2018-09-06T09:05:28.144Z,1009.16
2018-09-06T09:06:29.532Z,1009.21
2018-09-06T09:07:30.997Z,1009.22
2018-09-06T09:08:32.485Z,1009.16
2018-09-06T09:09:33.867Z,1009.19
2018-09-06T09:10:35.312Z,1009.19
2018-09-06T09:11:36.723Z,1009.18
2018-09-06T09:12:38.185Z,1009.18
2018-09-06T09:13:39.475Z,1009.14
2018-09-06T09:14:40.890Z,1009.16
2018-09-06T09:15:42.275Z,1009.10
2018-09-06T09:16:43.688Z,1009.08
2018-09-06T09:17:45.074Z,1009.19
2018-09-06T09:18:46.476Z,1009.21
2018-09-06T09:19:47.872Z,1009.07
2018-09-06T09:20:49.267Z,1009.11
2018-09-06T09:21:50.755Z,1009.08
2018-09-06T09:22:52.020Z,1009.06
2018-09-06T09:23:53.427Z,1009.07
2018-09-06T09:24:54.822Z,1009.08
2018-09-06T09:25:56.227Z,1009.03
2018-09-06T09:26:57.616Z,1009.07
2018-09-06T09:27:59.013Z,1009.07
2018-09-06T09:29:00.411Z,1009.03
2018-09-06T09:30:01.853Z,1009.07
2018-09-06T09:31:03.213Z,1009.10
2018-09-06T09:32:04.604Z,1009.06
2018-09-06T09:33:06.007Z,1009.02
2018-09-06T09:34:07.430Z,1009.06
2018-09-06T09:35:08.818Z,1009.00
2018-09-06T09:36:10.224Z,1008.99
2018-09-06T09:37:11.629Z,1008.99
2018-09-06T09:38:13.027Z,1008.94
2018-09-06T09:39:14.445Z,1008.88
2018-09-06T09:40:15.843Z,1008.94
2018-09-06T09:41:17.329Z,1008.90
2018-09-06T09:42:18.715Z,1009.00
2018-09-06T09:43:20.175Z,1008.95
2018-09-06T09:44:21.455Z,1008.97
2018-09-06T09:45:22.855Z,1008.98
2018-09-06T09:47:44.155Z,1008.96
2018-09-06T09:48:45.553Z,1008.93
2018-09-06T09:49:46.953Z,1008.89
2018-09-06T09:50:48.344Z,1008.88
2018-09-06T09:51:49.741Z,1008.79
2018-09-06T09:52:51.138Z,1008.88
2018-09-06T09:53:52.540Z,1008.90
2018-09-06T09:54:53.946Z,1008.93
2018-09-06T09:55:55.336Z,1008.93
2018-09-06T09:56:56.768Z,1008.94
2018-09-06T09:57:58.134Z,1008.91
2018-09-06T09:58:59.534Z,1008.92
2018-09-06T10:00:00.940Z,1008.88
2018-09-06T10:01:02.342Z,1008.78
2018-09-06T10:02:03.738Z,1008.78
2018-09-06T10:03:05.134Z,1008.79
2018-09-06T10:04:06.524Z,1008.90
2018-09-06T10:05:07.915Z,1008.75
2018-09-06T10:06:09.310Z,1008.74
2018-09-06T10:07:10.708Z,1008.75
2018-09-06T10:08:12.106Z,1008.78
2018-09-06T10:09:13.495Z,1008.78
2018-09-06T10:10:14.886Z,1008.88
2018-09-06T10:11:16.277Z,1008.82
2018-09-06T10:12:17.674Z,1008.71
2018-09-06T10:13:19.065Z,1008.74
2018-09-06T10:14:20.471Z,1008.68
2018-09-06T10:15:21.876Z,1008.74
2018-09-06T10:16:23.258Z,1008.73
2018-09-06T10:17:24.644Z,1008.71
2018-09-06T10:18:26.040Z,1008.67
2018-09-06T10:19:28.302Z,1008.68
2018-09-06T10:20:29.707Z,1008.69
2018-09-06T10:21:31.111Z,1008.64
2018-09-06T10:22:32.509Z,1008.70
2018-09-06T10:23:33.910Z,1008.71
2018-09-06T10:24:35.306Z,1008.72
2018-09-06T10:25:36.763Z,1008.67
2018-09-06T10:26:38.155Z,1008.62
2018-09-06T10:27:39.551Z,1008.53
2018-09-06T10:28:40.949Z,1008.55
2018-09-06T10:29:42.349Z,1008.53
2018-09-06T10:30:43.746Z,1008.55
2018-09-06T10:31:45.140Z,1008.55
2018-09-06T10:32:46.542Z,1008.53
2018-09-06T10:33:47.930Z,1008.48
2018-09-06T10:34:49.328Z,1008.46
2018-09-06T10:35:50.714Z,1008.53
2018-09-06T10:36:52.113Z,1008.46
2018-09-06T10:37:53.524Z,1008.47
2018-09-06T10:38:54.916Z,1008.46
2018-09-06T10:39:56.361Z,1008.37
2018-09-06T10:40:57.712Z,1008.40
2018-09-06T10:41:59.111Z,1008.38
2018-09-06T10:43:00.501Z,1008.39
2018-09-06T10:44:01.912Z,1008.37
2018-09-06T10:45:03.326Z,1008.40
2018-09-06T10:46:04.723Z,1008.39
2018-09-06T10:47:06.148Z,1008.37
2018-09-06T10:48:07.543Z,1008.38
2018-09-06T10:49:08.938Z,1008.35
2018-09-06T10:50:10.332Z,1008.38
2018-09-06T10:51:11.745Z,1008.30
2018-09-06T10:52:13.151Z,1008.29
2018-09-06T10:53:14.557Z,1008.35
2018-09-06T10:54:15.948Z,1008.29
2018-09-06T10:55:17.380Z,1008.27
2018-09-06T10:56:18.769Z,1008.23
2018-09-06T10:57:20.174Z,1008.26
2018-09-06T10:58:21.584Z,1008.20
2018-09-06T10:59:22.974Z,1008.17
2018-09-06T11:00:24.369Z,1008.23
2018-09-06T11:01:25.772Z,1008.21
2018-09-06T11:02:27.169Z,1008.12
2018-09-06T11:03:28.566Z,1008.14
2018-09-06T11:04:29.972Z,1008.13
2018-09-06T11:05:31.405Z,1008.21
2018-09-06T11:06:32.802Z,1008.19
2018-09-06T11:07:34.198Z,1008.16
2018-09-06T11:08:35.595Z,1008.10
2018-09-06T11:09:36.999Z,1008.16
2018-09-06T11:10:38.402Z,1008.14
2018-09-06T11:11:39.792Z,1008.06
2018-09-06T11:12:41.195Z,1008.14
2018-09-06T11:13:42.635Z,1008.06
2018-09-06T11:14:44.054Z,1008.06
2018-09-06T11:15:45.459Z,1008.03
2018-09-06T11:16:46.858Z,1007.99
2018-09-06T11:17:48.262Z,1008.03
2018-09-06T11:18:49.652Z,1008.04
2018-09-06T11:19:51.055Z,1007.98
2018-09-06T11:20:52.463Z,1007.99
2018-09-06T11:21:54.023Z,1008.00
2018-09-06T11:22:55.265Z,1007.96
2018-09-06T11:23:56.702Z,1007.92
2018-09-06T11:24:58.091Z,1007.90
2018-09-06T11:25:59.485Z,1007.92
2018-09-06T11:27:00.916Z,1007.93
2018-09-06T11:28:02.317Z,1007.87
2018-09-06T11:29:03.718Z,1007.89
2018-09-06T11:30:05.121Z,1007.85
2018-09-06T11:31:06.514Z,1007.90
2018-09-06T11:32:07.939Z,1007.86
2018-09-06T11:33:09.402Z,1007.85
2018-09-06T11:34:10.688Z,1007.76
2018-09-06T11:35:12.095Z,1007.85
2018-09-06T11:36:13.517Z,1007.84
2018-09-06T11:37:14.917Z,1007.85
2018-09-06T11:38:16.324Z,1007.86
2018-09-06T11:39:17.740Z,1007.88
2018-09-06T11:40:19.161Z,1007.81
2018-09-06T11:41:20.544Z,1007.81
2018-09-06T11:42:21.945Z,1007.79
2018-09-06T11:43:23.347Z,1007.72
2018-09-06T11:44:24.735Z,1007.76
2018-09-06T11:45:26.140Z,1007.79
2018-09-06T11:46:27.546Z,1007.76
2018-09-06T11:47:29.079Z,1007.76
2018-09-06T11:48:30.411Z,1007.72
2018-09-06T11:49:31.815Z,1007.73
2018-09-06T11:50:33.208Z,1007.87
2018-09-06T11:51:34.595Z,1007.81
2018-09-06T11:52:35.989Z,1007.76
2018-09-06T11:53:37.387Z,1007.75
2018-09-06T11:54:38.777Z,1007.75
2018-09-06T11:55:40.182Z,1007.71
2018-09-06T11:56:41.576Z,1007.71
2018-09-06T11:57:42.976Z,1007.67
2018-09-06T11:58:44.381Z,1007.68
2018-09-06T11:59:45.773Z,1007.71
2018-09-06T12:00:47.170Z,1007.62
2018-09-06T12:01:48.599Z,1007.65
2018-09-06T12:02:50.005Z,1007.59
2018-09-06T12:03:51.411Z,1007.65
2018-09-06T12:04:52.815Z,1007.63
2018-09-06T12:05:54.201Z,1007.65
2018-09-06T12:06:55.589Z,1007.69
2018-09-06T12:07:56.983Z,1007.66
2018-09-06T12:08:58.375Z,1007.69
2018-09-06T12:09:59.773Z,1007.67
2018-09-06T12:11:01.166Z,1007.64
2018-09-06T12:12:02.568Z,1007.61
2018-09-06T12:13:03.961Z,1007.58
2018-09-06T12:14:05.377Z,1007.60
2018-09-06T12:15:06.769Z,1007.58
2018-09-06T12:16:08.167Z,1007.55
2018-09-06T12:17:09.593Z,1007.56
2018-09-06T12:18:10.993Z,1007.53
2018-09-06T12:19:12.397Z,1007.45
2018-09-06T12:20:13.791Z,1007.50
2018-09-06T12:21:15.196Z,1007.39
2018-09-06T12:22:16.594Z,1007.44
2018-09-06T12:23:17.997Z,1007.47
2018-09-06T12:24:19.406Z,1007.43